Dubendorf Airport LSMD

Airport Data

Name: Dubendorf Airport

Ident: LSMD

Lat: 47.39860153

Long: 8.648229599

Elevation: 1470 ft

IataCode:

City: Zurich

Metar

2021/09/28 07:20
LSMD 280720Z 03003KT 340V070 9999 OVC026 13/09 Q1025 RMK BLU

Taf

2021/09/27 17:00
TAF LSMA 271625Z 2717/2823 VRB02KT 9999 BKN120
TEMPO 2722/2807 SHRA= TAF LSMD 271625Z 2717/2823 30003KT CAVOK
BECMG 2720/2723 9999 BKN040
TEMPO 2800/2806 SHRA
Add a Webcam Url. We will unlock it as soon is possible. Thank you:
Url: Title: